Time;durP1;ratioP1;P1;durP2;ratioP2;P2;SDS_P1;SDS_P2;PMS_P1;PMS_P2;Temp;Humidity;BMP_temperature;BMP_pressure;BME280_temperature;BME280_humidity;BME280_pressure;Samples;Min_cycle;Max_cycle;Signal;HPM_P1;HPM_P2
2023/06/09 00:01:12;;;;;;;;;;;;;;;21.75;100.00;99294.03;5029963;28;19921;-77
2023/06/09 00:03:39;;;;;;;;;;;;;;;21.76;100.00;99298.34;5012928;28;19917;-77
2023/06/09 00:06:05;;;;;;;;;;;;;;;21.74;100.00;99295.06;5029699;28;19940;-78
2023/06/09 00:08:31;;;;;;;;;;;;;;;21.72;100.00;99289.13;5030018;28;19917;-78
2023/06/09 00:10:56;;;;;;;;;;;;;;;21.74;100.00;99295.06;5029831;28;20012;-77
2023/06/09 00:13:22;;;;;;;;;;;;;;;21.70;100.00;99293.88;5030467;28;19928;-77
2023/06/09 00:15:47;;;;;;;;;;;;;;;21.65;100.00;99295.38;5029829;28;20011;-77
2023/06/09 00:18:16;;;;;;;;;;;;;;;21.61;100.00;99282.59;5029924;28;19944;-77
2023/06/09 00:20:42;;;;;;;;;;;;;;;21.62;100.00;99285.03;5011408;28;20277;-77
2023/06/09 00:23:08;;;;;;;;;;;;;;;21.60;100.00;99284.47;5029888;28;19916;-77
2023/06/09 00:25:34;;;;;;;;;;;;;;;21.55;100.00;99289.69;5012072;28;19975;-77
2023/06/09 00:27:59;;;;;;;;;;;;;;;21.52;100.00;99282.03;5030219;28;19924;-77
2023/06/09 00:30:24;;;;;;;;;;;;;;;21.46;100.00;99285.59;5030516;28;19916;-78
2023/06/09 00:32:50;;;;;;;;;;;;;;;21.42;100.00;99281.72;5013226;28;19917;-75
2023/06/09 00:35:15;;;;;;;;;;;;;;;21.41;100.00;99281.94;5033654;28;20100;-77
2023/06/09 00:37:41;;;;;;;;;;;;;;;21.36;100.00;99276.41;5033942;28;19917;-76
2023/06/09 00:40:07;;;;;;;;;;;;;;;21.34;100.00;99273.13;5033526;28;19924;-78
2023/06/09 00:42:33;;;;;;;;;;;;;;;21.31;100.00;99269.03;5033903;28;19974;-77
2023/06/09 00:44:59;;;;;;;;;;;;;;;21.24;100.00;99273.63;5015773;28;19924;-77
2023/06/09 00:47:25;;;;;;;;;;;;;;;21.23;100.00;99280.00;5033677;28;19917;-76
2023/06/09 00:49:51;;;;;;;;;;;;;;;21.18;100.00;99279.84;5033569;28;19917;-76
2023/06/09 00:52:18;;;;;;;;;;;;;;;21.15;100.00;99281.09;5033372;28;19921;-77
2023/06/09 00:54:43;;;;;;;;;;;;;;;21.10;100.00;99282.75;5033751;28;19917;-76
2023/06/09 00:57:10;;;;;;;;;;;;;;;21.06;100.00;99281.56;5011749;28;19936;-77
2023/06/09 00:59:36;;;;;;;;;;;;;;;20.98;100.00;99273.75;5012385;28;20320;-77
2023/06/09 01:02:03;;;;;;;;;;;;;;;20.97;100.00;99266.78;5030836;28;19925;-78
2023/06/09 01:04:29;;;;;;;;;;;;;;;20.93;100.00;99273.59;5031937;28;19924;-78
2023/06/09 01:07:00;;;;;;;;;;;;;;;20.90;100.00;99271.34;5032625;28;19917;-78
2023/06/09 01:09:48;;;;;;;;;;;;;;;20.90;100.00;99268.66;5032423;28;19944;-78
2023/06/09 01:12:37;;;;;;;;;;;;;;;20.90;100.00;99274.03;5033191;28;19923;-79
2023/06/09 01:15:22;;;;;;;;;;;;;;;20.91;100.00;99273.00;5026989;28;19975;-78
2023/06/09 01:17:52;;;;;;;;;;;;;;;20.92;100.00;99269.25;5012662;28;19936;-77
2023/06/09 01:20:26;;;;;;;;;;;;;;;20.94;100.00;99284.09;5033160;28;20349;-75
2023/06/09 01:22:51;;;;;;;;;;;;;;;20.95;100.00;99275.03;5032542;28;19920;-78
2023/06/09 01:25:34;;;;;;;;;;;;;;;20.98;100.00;99282.63;5011349;28;19916;-78
2023/06/09 01:28:03;;;;;;;;;;;;;;;20.94;100.00;99283.28;5032316;28;19924;-77
2023/06/09 01:30:30;;;;;;;;;;;;;;;20.92;100.00;99277.31;5015407;28;19917;-78
2023/06/09 01:33:01;;;;;;;;;;;;;;;20.91;100.00;99273.00;5010472;28;19996;-78
2023/06/09 01:35:27;;;;;;;;;;;;;;;20.89;100.00;99277.75;5032269;28;19916;-78
2023/06/09 01:37:54;;;;;;;;;;;;;;;20.87;100.00;99277.94;5032327;28;19964;-78
2023/06/09 01:40:19;;;;;;;;;;;;;;;20.86;100.00;99281.66;5032996;28;20243;-76
2023/06/09 01:42:45;;;;;;;;;;;;;;;20.85;100.00;99280.84;5032362;28;19916;-78
2023/06/09 01:45:10;;;;;;;;;;;;;;;20.86;100.00;99273.63;4997993;28;19921;-77
2023/06/09 01:47:35;;;;;;;;;;;;;;;20.83;100.00;99280.25;5014648;28;19970;-78
2023/06/09 01:50:07;;;;;;;;;;;;;;;20.83;100.00;99272.22;5032151;28;19966;-78
2023/06/09 01:52:38;;;;;;;;;;;;;;;20.83;100.00;99276.75;5031511;28;19925;-78
2023/06/09 01:55:11;;;;;;;;;;;;;;;20.82;100.00;99267.88;5032200;28;20309;-77
2023/06/09 01:57:47;;;;;;;;;;;;;;;20.77;100.00;99262.34;5014331;28;20377;-76
2023/06/09 02:00:12;;;;;;;;;;;;;;;20.74;100.00;99268.13;5022891;28;19927;-76
2023/06/09 02:02:42;;;;;;;;;;;;;;;20.72;100.00;99259.50;5028571;28;20010;-77
2023/06/09 02:05:10;;;;;;;;;;;;;;;20.69;100.00;99257.22;5031666;28;19921;-77
2023/06/09 02:07:36;;;;;;;;;;;;;;;20.67;100.00;99253.13;5013670;28;19964;-77
2023/06/09 02:10:02;;;;;;;;;;;;;;;20.61;100.00;99245.94;5013551;28;19956;-78
2023/06/09 02:12:34;;;;;;;;;;;;;;;20.57;100.00;99258.13;5013988;28;19923;-78
2023/06/09 02:15:01;;;;;;;;;;;;;;;20.52;100.00;99261.44;5031567;28;19931;-78
2023/06/09 02:17:27;;;;;;;;;;;;;;;20.48;100.00;99259.41;5032020;28;20391;-77
2023/06/09 02:19:53;;;;;;;;;;;;;;;20.44;100.00;99245.59;5031387;28;20007;-78
2023/06/09 02:22:18;;;;;;;;;;;;;;;20.36;100.00;99244.00;5013853;28;20063;-78
2023/06/09 02:24:50;;;;;;;;;;;;;;;20.37;100.00;99248.34;5031420;28;19917;-76
2023/06/09 02:27:15;;;;;;;;;;;;;;;20.35;100.00;99244.22;5022001;28;19996;-76
2023/06/09 02:29:40;;;;;;;;;;;;;;;20.37;100.00;99245.66;5010132;28;20274;-77
2023/06/09 02:32:06;;;;;;;;;;;;;;;20.32;100.00;99241.97;5027610;28;19975;-77
2023/06/09 02:34:32;;;;;;;;;;;;;;;20.33;100.00;99244.41;5013685;28;19924;-78
2023/06/09 02:36:57;;;;;;;;;;;;;;;20.32;100.00;99244.66;5012906;28;19924;-77
2023/06/09 02:39:23;;;;;;;;;;;;;;;20.28;100.00;99235.34;5009499;28;19917;-77
2023/06/09 02:41:48;;;;;;;;;;;;;;;20.25;100.00;99235.78;5031210;28;19979;-77
2023/06/09 02:44:14;;;;;;;;;;;;;;;20.25;100.00;99244.66;5030890;28;19917;-76
2023/06/09 02:46:40;;;;;;;;;;;;;;;20.25;100.00;99241.13;5031406;28;19971;-77
2023/06/09 02:49:06;;;;;;;;;;;;;;;20.26;100.00;99248.94;5030771;28;19924;-77
2023/06/09 02:51:31;;;;;;;;;;;;;;;20.26;100.00;99238.22;5008970;28;19940;-77
2023/06/09 02:53:57;;;;;;;;;;;;;;;20.28;100.00;99246.06;5030962;28;20324;-77
2023/06/09 02:56:22;;;;;;;;;;;;;;;20.26;100.00;99238.22;5008364;28;19951;-77
2023/06/09 02:58:51;;;;;;;;;;;;;;;20.13;100.00;99238.31;5012800;28;19916;-77
2023/06/09 03:01:17;;;;;;;;;;;;;;;20.13;100.00;99240.16;5009152;28;19917;-76
2023/06/09 03:03:45;;;;;;;;;;;;;;;20.10;100.00;99230.66;5013430;28;19967;-76
2023/06/09 03:06:13;;;;;;;;;;;;;;;20.12;100.00;99230.47;5012794;28;20366;-76
2023/06/09 03:08:39;;;;;;;;;;;;;;;20.12;100.00;99222.44;5011356;28;19964;-76
2023/06/09 03:11:06;;;;;;;;;;;;;;;20.13;100.00;99229.44;5008925;23;19926;-76
2023/06/09 03:13:32;;;;;;;;;;;;;;;20.11;100.00;99239.53;4981603;28;19918;-76
2023/06/09 03:15:58;;;;;;;;;;;;;;;20.07;100.00;99243.69;4990123;28;20390;-75
2023/06/09 03:18:26;;;;;;;;;;;;;;;20.03;100.00;99249.44;4988578;28;19954;-76
2023/06/09 03:20:52;;;;;;;;;;;;;;;20.02;100.00;99242.47;4971250;28;19945;-76
2023/06/09 03:23:20;;;;;;;;;;;;;;;20.03;100.00;99244.09;4990365;28;19925;-76
2023/06/09 03:25:46;;;;;;;;;;;;;;;20.01;100.00;99240.81;4974201;28;19928;-77
2023/06/09 03:28:14;;;;;;;;;;;;;;;19.99;100.00;99242.88;4991463;28;20381;-76
2023/06/09 03:30:41;;;;;;;;;;;;;;;19.94;100.00;99250.72;4974389;28;20289;-76
2023/06/09 03:33:07;;;;;;;;;;;;;;;19.91;100.00;99248.44;4970573;28;19937;-76
2023/06/09 03:35:32;;;;;;;;;;;;;;;19.88;100.00;99248.88;4986968;28;20293;-76
2023/06/09 03:37:58;;;;;;;;;;;;;;;19.86;100.00;99253.63;4988212;28;19928;-77
2023/06/09 03:40:24;;;;;;;;;;;;;;;19.82;100.00;99251.56;4990275;28;19917;-76
2023/06/09 03:42:49;;;;;;;;;;;;;;;19.84;100.00;99261.06;4983468;28;20381;-76
2023/06/09 03:45:15;;;;;;;;;;;;;;;19.84;100.00;99261.06;4991809;28;19929;-76
2023/06/09 03:47:40;;;;;;;;;;;;;;;19.76;100.00;99271.97;4989837;28;20003;-77
2023/06/09 03:50:07;;;;;;;;;;;;;;;19.72;100.00;99273.44;4973671;28;20021;-74
2023/06/09 03:52:33;;;;;;;;;;;;;;;19.73;100.00;99272.41;4974285;28;19918;-75
2023/06/09 03:55:00;;;;;;;;;;;;;;;19.67;100.00;99275.91;4973978;28;19924;-76
2023/06/09 03:57:26;;;;;;;;;;;;;;;19.68;100.00;99277.53;4973752;28;19929;-76
2023/06/09 03:59:52;;;;;;;;;;;;;;;19.64;100.00;99281.66;4973603;28;19918;-78
2023/06/09 04:02:18;;;;;;;;;;;;;;;19.64;100.00;99281.66;4971149;28;19953;-77
2023/06/09 04:04:44;;;;;;;;;;;;;;;19.52;100.00;99277.97;4991911;28;19964;-76
2023/06/09 04:07:11;;;;;;;;;;;;;;;19.41;100.00;99281.22;4974396;28;20349;-77
2023/06/09 04:09:37;;;;;;;;;;;;;;;19.28;100.00;99270.53;4991308;28;19921;-77
2023/06/09 04:12:03;;;;;;;;;;;;;;;19.28;100.00;99270.53;4992643;28;19918;-76
2023/06/09 04:14:29;;;;;;;;;;;;;;;19.26;100.00;99267.25;4993932;28;19917;-74
2023/06/09 04:16:55;;;;;;;;;;;;;;;19.28;100.00;99266.00;4992884;28;19917;-76
2023/06/09 04:19:22;;;;;;;;;;;;;;;19.26;100.00;99262.72;4995240;28;19918;-77
2023/06/09 04:21:47;;;;;;;;;;;;;;;19.28;100.00;99265.16;4995217;28;19917;-76
2023/06/09 04:24:14;;;;;;;;;;;;;;;19.31;100.00;99265.59;4990455;28;19972;-76
2023/06/09 04:26:44;;;;;;;;;;;;;;;19.35;100.00;99271.34;4986943;28;19922;-77
2023/06/09 04:29:10;;;;;;;;;;;;;;;19.39;100.00;99272.56;4990455;28;19928;-77
2023/06/09 04:31:37;;;;;;;;;;;;;;;19.44;100.00;99278.16;4976672;28;20298;-76
2023/06/09 04:34:09;;;;;;;;;;;;;;;19.47;100.00;99275.09;4989142;28;19918;-76
2023/06/09 04:36:36;;;;;;;;;;;;;;;19.47;100.00;99277.75;4974762;28;20160;-77
2023/06/09 04:39:03;;;;;;;;;;;;;;;19.50;100.00;99277.34;4993635;28;19918;-75
2023/06/09 04:41:31;;;;;;;;;;;;;;;19.57;100.00;99275.50;4977294;28;20012;-75
2023/06/09 04:44:03;;;;;;;;;;;;;;;19.66;100.00;99274.25;4993192;28;20349;-75
2023/06/09 04:46:37;;;;;;;;;;;;;;;19.73;100.00;99280.44;4990133;28;19944;-75
2023/06/09 04:49:08;;;;;;;;;;;;;;;19.78;100.00;99283.31;4979567;28;20297;-75
2023/06/09 04:51:41;;;;;;;;;;;;;;;19.77;100.00;99292.38;4992985;28;19926;-76
2023/06/09 04:54:09;;;;;;;;;;;;;;;19.77;100.00;99291.53;4985159;28;19949;-74
2023/06/09 04:56:36;;;;;;;;;;;;;;;19.73;100.00;99291.13;4992388;28;19918;-74
2023/06/09 04:59:02;;;;;;;;;;;;;;;19.74;100.00;99291.94;4989712;28;19914;-79
2023/06/09 05:01:29;;;;;;;;;;;;;;;19.74;100.00;99287.41;4990906;28;19918;-77
2023/06/09 05:03:55;;;;;;;;;;;;;;;19.76;100.00;99289.88;4990430;28;19918;-79
2023/06/09 05:06:21;;;;;;;;;;;;;;;19.77;100.00;99288.84;4994287;28;19914;-81
2023/06/09 05:08:47;;;;;;;;;;;;;;;19.77;100.00;99287.00;4992931;28;19924;-80
2023/06/09 05:11:13;;;;;;;;;;;;;;;19.83;100.00;99286.19;4976969;28;19918;-85
2023/06/09 05:13:38;;;;;;;;;;;;;;;19.84;100.00;99293.19;4990236;28;19917;-81
2023/06/09 05:16:04;;;;;;;;;;;;;;;19.88;100.00;99294.41;4989845;28;19925;-76
2023/06/09 05:18:30;;;;;;;;;;;;;;;19.93;100.00;99299.13;4975707;28;19943;-78
2023/06/09 05:20:56;;;;;;;;;;;;;;;19.97;100.00;99298.50;4975943;28;19922;-78
2023/06/09 05:23:22;;;;;;;;;;;;;;;20.01;100.00;99293.56;4993626;28;20160;-79
2023/06/09 05:25:49;;;;;;;;;;;;;;;20.03;100.00;99297.66;4988938;28;19949;-79
2023/06/09 05:28:15;;;;;;;;;;;;;;;20.06;100.00;99295.59;4989238;28;20011;-78
2023/06/09 05:30:40;;;;;;;;;;;;;;;20.06;100.00;99303.63;4986486;28;19922;-79
2023/06/09 05:33:06;;;;;;;;;;;;;;;20.11;100.00;99304.66;4988805;28;20238;-76
2023/06/09 05:35:32;;;;;;;;;;;;;;;20.14;100.00;99308.78;4975588;28;19962;-75
2023/06/09 05:37:58;;;;;;;;;;;;;;;20.18;100.00;99301.94;4987564;28;19940;-78
2023/06/09 05:40:26;;;;;;;;;;;;;;;20.23;100.00;99296.78;4985323;28;19922;-74
2023/06/09 05:42:51;;;;;;;;;;;;;;;20.27;100.00;99303.34;4992336;28;19940;-76
2023/06/09 05:45:17;;;;;;;;;;;;;;;20.33;100.00;99302.53;4992030;28;19965;-75
2023/06/09 05:47:42;;;;;;;;;;;;;;;20.39;100.00;99302.53;4995084;28;19957;-75
2023/06/09 05:50:08;;;;;;;;;;;;;;;20.43;100.00;99308.31;4991622;28;19918;-76
2023/06/09 05:52:33;;;;;;;;;;;;;;;20.48;100.00;99300.44;4974229;28;19930;-78
2023/06/09 05:55:00;;;;;;;;;;;;;;;20.54;100.00;99307.63;4988602;28;19937;-77
2023/06/09 05:57:29;;;;;;;;;;;;;;;20.63;100.00;99309.03;4992901;28;19925;-78
2023/06/09 05:59:56;;;;;;;;;;;;;;;20.73;100.00;99312.09;4992532;28;19918;-76
2023/06/09 06:02:22;;;;;;;;;;;;;;;20.79;100.00;99313.88;4992600;28;19917;-76
2023/06/09 06:04:47;;;;;;;;;;;;;;;20.88;100.00;99316.31;4988460;28;19940;-75
2023/06/09 06:07:15;;;;;;;;;;;;;;;20.89;100.00;99328.72;4992437;28;20024;-76
2023/06/09 06:09:41;;;;;;;;;;;;;;;20.83;100.00;99322.34;4986331;28;20413;-74
2023/06/09 06:12:06;;;;;;;;;;;;;;;20.77;100.00;99318.66;4988269;28;19925;-75
2023/06/09 06:14:32;;;;;;;;;;;;;;;20.81;100.00;99327.91;4992782;28;19925;-74
2023/06/09 06:16:57;;;;;;;;;;;;;;;20.81;100.00;99332.44;4989135;28;19925;-76
2023/06/09 06:19:23;;;;;;;;;;;;;;;20.83;100.00;99325.84;4989911;28;19917;-77
2023/06/09 06:21:48;;;;;;;;;;;;;;;20.83;100.00;99320.50;4988520;28;19917;-76
2023/06/09 06:24:13;;;;;;;;;;;;;;;20.92;100.00;99328.25;4988598;28;19965;-76
2023/06/09 06:26:39;;;;;;;;;;;;;;;20.94;100.00;99328.88;4993350;28;19949;-77
2023/06/09 06:29:04;;;;;;;;;;;;;;;20.98;100.00;99333.59;4988865;28;19925;-76
2023/06/09 06:31:30;;;;;;;;;;;;;;;21.01;100.00;99333.19;4988379;28;20020;-76
2023/06/09 06:33:57;;;;;;;;;;;;;;;20.94;100.00;99342.28;4988085;28;19918;-76
2023/06/09 06:36:23;;;;;;;;;;;;;;;20.94;100.00;99336.94;4985393;28;19932;-83
2023/06/09 06:38:49;;;;;;;;;;;;;;;20.91;100.00;99343.53;4988770;28;19921;-75
2023/06/09 06:41:14;;;;;;;;;;;;;;;20.91;100.00;99348.91;4987761;28;19921;-75
2023/06/09 06:43:43;;;;;;;;;;;;;;;20.90;100.00;99349.13;4988217;28;19918;-76
2023/06/09 06:46:11;;;;;;;;;;;;;;;20.87;100.00;99346.88;4988747;28;19960;-78
2023/06/09 06:48:38;;;;;;;;;;;;;;;20.91;100.00;99346.22;4991958;28;19918;-77
2023/06/09 06:51:05;;;;;;;;;;;;;;;21.00;100.00;99349.47;4987591;28;19917;-75
2023/06/09 06:53:31;;;;;;;;;;;;;;;21.05;100.00;99350.47;4991513;28;19918;-76
2023/06/09 06:55:57;;;;;;;;;;;;;;;21.14;100.00;99357.25;4987263;28;19925;-76
2023/06/09 06:58:22;;;;;;;;;;;;;;;21.30;100.00;99364.00;4991914;28;20000;-76
2023/06/09 07:00:48;;;;;;;;;;;;;;;21.42;100.00;99367.63;4987690;28;19949;-76
2023/06/09 07:03:16;;;;;;;;;;;;;;;21.50;100.00;99367.34;4987454;28;19921;-75
2023/06/09 07:05:41;;;;;;;;;;;;;;;21.57;100.00;99376.19;4987413;28;19924;-74
2023/06/09 07:08:06;;;;;;;;;;;;;;;21.69;100.00;99378.16;4990345;28;19922;-76
2023/06/09 07:10:32;;;;;;;;;;;;;;;21.78;100.00;99382.22;4988971;28;19918;-77
2023/06/09 07:12:58;;;;;;;;;;;;;;;21.85;100.00;99383.84;4987333;28;19918;-74
2023/06/09 07:15:23;;;;;;;;;;;;;;;21.86;100.00;99384.63;4991783;28;19917;-75
2023/06/09 07:17:49;;;;;;;;;;;;;;;21.91;100.00;99376.75;4987505;28;19918;-76
2023/06/09 07:20:14;;;;;;;;;;;;;;;21.88;100.00;99383.38;4990210;28;19918;-77
2023/06/09 07:22:41;;;;;;;;;;;;;;;21.88;100.00;99387.91;4983041;28;19918;-76
2023/06/09 07:25:07;;;;;;;;;;;;;;;21.90;100.00;99391.22;4990214;28;20745;-77
2023/06/09 07:27:32;;;;;;;;;;;;;;;21.98;100.00;99385.59;4987190;28;20381;-77
2023/06/09 07:29:58;;;;;;;;;;;;;;;22.00;100.00;99384.34;4989238;28;20009;-77
2023/06/09 07:32:23;;;;;;;;;;;;;;;22.07;100.00;99384.28;4984390;28;19961;-79
2023/06/09 07:34:49;;;;;;;;;;;;;;;22.11;100.00;99382.78;4989302;28;20517;-77
2023/06/09 07:37:15;;;;;;;;;;;;;;;22.21;100.00;99374.19;4988050;28;20329;-77
2023/06/09 07:39:41;;;;;;;;;;;;;;;22.34;100.00;99371.38;4986597;28;19922;-77
2023/06/09 07:42:06;;;;;;;;;;;;;;;22.45;100.00;99374.16;4990754;28;19937;-77
2023/06/09 07:44:31;;;;;;;;;;;;;;;22.57;100.00;99382.28;4984814;28;19953;-78
2023/06/09 07:46:57;;;;;;;;;;;;;;;22.66;100.00;99372.06;4983227;28;19969;-76
2023/06/09 07:49:24;;;;;;;;;;;;;;;22.68;100.00;99378.84;4987173;28;19918;-77
2023/06/09 07:51:50;;;;;;;;;;;;;;;22.79;100.00;99370.09;4985847;28;19917;-75
2023/06/09 07:54:16;;;;;;;;;;;;;;;22.64;100.00;99377.66;4985583;28;19929;-77
2023/06/09 07:56:41;;;;;;;;;;;;;;;22.61;100.00;99363.88;4973032;28;19918;-75
2023/06/09 07:59:07;;;;;;;;;;;;;;;22.74;100.00;99366.41;4988499;28;19925;-75
2023/06/09 08:01:32;;;;;;;;;;;;;;;22.87;100.00;99366.25;4970678;28;19918;-75
2023/06/09 08:04:01;;;;;;;;;;;;;;;22.99;100.00;99364.44;4984373;28;19944;-75
2023/06/09 08:06:28;;;;;;;;;;;;;;;23.00;100.00;99363.38;4988526;28;20286;-74
2023/06/09 08:08:54;;;;;;;;;;;;;;;22.99;100.00;99364.44;4989710;28;19917;-75
2023/06/09 08:11:19;;;;;;;;;;;;;;;23.10;100.00;99360.13;4985057;28;19924;-75
2023/06/09 08:13:44;;;;;;;;;;;;;;;22.90;100.00;99355.03;4987128;28;19929;-75
2023/06/09 08:16:10;;;;;;;;;;;;;;;23.05;100.00;99352.75;4985818;28;19914;-75
2023/06/09 08:18:35;;;;;;;;;;;;;;;23.06;100.00;99349.03;4982375;28;19921;-74
2023/06/09 08:21:01;;;;;;;;;;;;;;;23.17;100.00;99339.34;4989860;28;19924;-75
2023/06/09 08:23:26;;;;;;;;;;;;;;;23.23;100.00;99333.03;4981950;28;19922;-75
2023/06/09 08:25:52;;;;;;;;;;;;;;;23.24;100.00;99340.06;4985278;28;19917;-75
2023/06/09 08:28:17;;;;;;;;;;;;;;;23.34;100.00;99336.81;4982883;28;19917;-75
2023/06/09 08:30:42;;;;;;;;;;;;;;;23.39;100.00;99342.31;4990138;28;19965;-73
2023/06/09 08:33:08;;;;;;;;;;;;;;;23.50;100.00;99333.50;4989866;28;19960;-74
2023/06/09 08:35:34;;;;;;;;;;;;;;;23.56;100.00;99336.06;4989704;28;19921;-74
2023/06/09 08:38:00;;;;;;;;;;;;;;;23.56;100.00;99332.56;4985674;28;20020;-74
2023/06/09 08:40:25;;;;;;;;;;;;;;;23.53;100.00;99341.09;4990031;28;19965;-74
2023/06/09 08:42:53;;;;;;;;;;;;;;;23.55;100.00;99341.69;4985227;28;19922;-75
2023/06/09 08:45:20;;;;;;;;;;;;;;;23.66;100.00;99338.19;4989597;28;19944;-74
2023/06/09 08:47:47;;;;;;;;;;;;;;;23.67;100.00;99337.16;4990291;28;19918;-75
2023/06/09 08:50:13;;;;;;;;;;;;;;;23.73;100.00;99341.59;4989792;28;19921;-76
2023/06/09 08:52:38;;;;;;;;;;;;;;;23.88;100.00;99336.56;4973142;28;19968;-75
2023/06/09 08:55:04;;;;;;;;;;;;;;;24.10;100.00;99339.47;4988027;28;20409;-75
2023/06/09 08:57:30;;;;;;;;;;;;;;;24.23;100.00;99333.06;4989634;28;19918;-73
2023/06/09 08:59:56;;;;;;;;;;;;;;;24.35;100.00;99341.97;4989710;28;19921;-75
2023/06/09 09:02:21;;;;;;;;;;;;;;;24.47;100.00;99345.44;4991255;28;19925;-75
2023/06/09 09:04:47;;;;;;;;;;;;;;;24.57;100.00;99332.16;4989352;28;20004;-74
2023/06/09 09:07:12;;;;;;;;;;;;;;;24.61;100.00;99341.44;4989040;28;19933;-74
2023/06/09 09:09:38;;;;;;;;;;;;;;;24.62;100.00;99343.09;4989671;28;20336;-74
2023/06/09 09:12:04;;;;;;;;;;;;;;;24.69;100.00;99343.75;4989101;28;20021;-74
2023/06/09 09:14:30;;;;;;;;;;;;;;;24.75;100.00;99345.50;4993417;28;19992;-74
2023/06/09 09:16:55;;;;;;;;;;;;;;;24.77;100.00;99346.09;4988912;28;20020;-75
2023/06/09 09:19:27;;;;;;;;;;;;;;;24.82;100.00;99348.88;4993430;28;19964;-75
2023/06/09 09:21:54;;;;;;;;;;;;;;;24.93;100.00;99343.69;4976111;28;19921;-74
2023/06/09 09:24:19;;;;;;;;;;;;;;;24.99;100.00;99331.94;4992422;28;20293;-75
2023/06/09 09:26:45;;;;;;;;;;;;;;;25.03;100.00;99339.34;4972689;28;20429;-75
2023/06/09 09:29:10;;;;;;;;;;;;;;;25.08;100.00;99336.72;4988607;28;19917;-74
2023/06/09 09:31:39;;;;;;;;;;;;;;;25.13;100.00;99339.53;4989167;28;19968;-75
2023/06/09 09:34:09;;;;;;;;;;;;;;;25.03;100.00;99333.13;4988662;28;19918;-75
2023/06/09 09:36:40;;;;;;;;;;;;;;;25.04;100.00;99337.44;4985512;28;19925;-75
2023/06/09 09:39:06;;;;;;;;;;;;;;;24.80;100.00;99345.59;4992571;28;19922;-73
2023/06/09 09:41:31;;;;;;;;;;;;;;;24.75;100.00;99336.56;4989355;28;19925;-74
2023/06/09 09:43:57;;;;;;;;;;;;;;;24.63;100.00;99336.63;4990907;28;19918;-74
2023/06/09 09:46:23;;;;;;;;;;;;;;;24.58;100.00;99341.91;4986525;28;19918;-72
2023/06/09 09:48:49;;;;;;;;;;;;;;;24.57;100.00;99348.34;4992858;28;19972;-78
2023/06/09 09:51:15;;;;;;;;;;;;;;;24.62;100.00;99343.09;4988748;28;19922;-73
2023/06/09 09:53:44;;;;;;;;;;;;;;;24.59;100.00;99343.56;4984758;28;19929;-73
2023/06/09 09:56:10;;;;;;;;;;;;;;;24.72;100.00;99335.19;4988732;28;19928;-73
2023/06/09 09:58:36;;;;;;;;;;;;;;;24.91;100.00;99329.66;4990461;28;20012;-73
2023/06/09 10:01:05;;;;;;;;;;;;;;;25.07;100.00;99331.56;4987373;28;20297;-73
2023/06/09 10:03:32;;;;;;;;;;;;;;;25.20;100.00;99331.28;4986677;28;19968;-74
2023/06/09 10:06:00;;;;;;;;;;;;;;;25.37;100.00;99334.81;4990189;28;20333;-74
2023/06/09 10:08:30;;;;;;;;;;;;;;;25.38;100.00;99341.84;4974920;28;20413;-74
2023/06/09 10:10:56;;;;;;;;;;;;;;;25.50;100.00;99339.91;4992444;28;19976;-74
2023/06/09 10:13:22;;;;;;;;;;;;;;;25.57;100.00;99329.75;4991755;28;19918;-74
2023/06/09 10:15:50;;;;;;;;;;;;;;;25.53;100.00;99334.00;4989432;28;19929;-74
2023/06/09 10:18:16;;;;;;;;;;;;;;;25.49;100.00;99335.56;4992001;28;20335;-74
2023/06/09 10:20:44;;;;;;;;;;;;;;;25.59;100.00;99327.66;4992718;28;20336;-74
2023/06/09 10:23:10;;;;;;;;;;;;;;;25.43;100.00;99317.63;4989649;28;20409;-74
2023/06/09 10:25:35;;;;;;;;;;;;;;;25.68;100.00;99326.16;4986936;28;19933;-74
2023/06/09 10:28:01;;;;;;;;;;;;;;;25.80;100.00;99327.97;4989125;28;19918;-75
2023/06/09 10:30:26;;;;;;;;;;;;;;;25.76;100.00;99326.81;4988772;28;19987;-78
2023/06/09 10:33:11;;;;;;;;;;;;;;;25.71;100.00;99324.03;4987457;28;19926;-76
2023/06/09 10:35:43;;;;;;;;;;;;;;;25.82;100.00;99325.84;4987909;28;20287;-78
2023/06/09 10:38:22;;;;;;;;;;;;;;;25.76;100.00;99329.53;4984981;28;20009;-78
2023/06/09 10:40:49;;;;;;;;;;;;;;;25.86;100.00;99329.69;4985719;28;19917;-78
2023/06/09 10:43:15;;;;;;;;;;;;;;;25.89;100.00;99321.09;4993194;28;19913;-77
2023/06/09 10:45:49;;;;;;;;;;;;;;;25.71;100.00;99322.16;4993291;28;19918;-78
2023/06/09 10:48:35;;;;;;;;;;;;;;;25.83;100.00;99317.47;4984643;28;19918;-78
2023/06/09 10:51:19;;;;;;;;;;;;;;;26.00;100.00;99322.88;4989275;28;19962;-77
2023/06/09 10:54:05;;;;;;;;;;;;;;;25.97;100.00;99328.78;4988901;28;19917;-77
2023/06/09 10:56:37;;;;;;;;;;;;;;;25.95;100.00;99320.09;4992017;28;19917;-77
2023/06/09 10:59:03;;;;;;;;;;;;;;;25.97;100.00;99317.97;4986429;28;19918;-78
2023/06/09 11:01:29;;;;;;;;;;;;;;;26.08;100.00;99314.34;4991719;28;19930;-77
2023/06/09 11:03:55;;;;;;;;;;;;;;;25.79;100.00;99323.63;4991216;28;19964;-76
2023/06/09 11:06:20;;;;;;;;;;;;;;;25.67;100.00;99329.94;4992394;28;20390;-76
2023/06/09 11:09:05;;;;;;;;;;;;;;;25.67;100.00;99329.13;4991941;28;19929;-77
2023/06/09 11:11:51;;;;;;;;;;;;;;;25.44;100.00;99329.25;4990857;28;20293;-77
2023/06/09 11:14:36;;;;;;;;;;;;;;;25.11;100.00;99324.59;4986339;28;19963;-77
2023/06/09 11:17:22;;;;;;;;;;;;;;;25.00;100.00;99322.78;4989639;28;19971;-77
2023/06/09 11:19:49;;;;;;;;;;;;;;;24.84;100.00;99330.56;4982463;28;19918;-77
2023/06/09 11:22:15;;;;;;;;;;;;;;;24.78;100.00;99331.53;4991371;28;20297;-77
2023/06/09 11:24:50;;;;;;;;;;;;;;;24.78;100.00;99326.13;4989517;28;19928;-76
2023/06/09 11:27:21;;;;;;;;;;;;;;;24.48;100.00;99336.31;4988733;28;19922;-77
2023/06/09 11:30:06;;;;;;;;;;;;;;;24.38;100.00;99328.84;4986871;28;19965;-76
2023/06/09 11:32:44;;;;;;;;;;;;;;;24.28;100.00;99335.88;4989910;28;20664;-76
2023/06/09 11:35:25;;;;;;;;;;;;;;;24.17;100.00;99333.97;4984458;28;19975;-76
2023/06/09 11:37:51;;;;;;;;;;;;;;;24.24;100.00;99329.31;4990225;28;20323;-76
2023/06/09 11:40:17;;;;;;;;;;;;;;;24.21;100.00;99335.19;4992163;28;20282;-75
2023/06/09 11:42:44;;;;;;;;;;;;;;;24.28;100.00;99325.06;4972221;28;20259;-77
2023/06/09 11:45:09;;;;;;;;;;;;;;;24.31;100.00;99325.44;4989569;28;19925;-76
2023/06/09 11:47:35;;;;;;;;;;;;;;;24.36;100.00;99322.03;4983214;28;19973;-75
2023/06/09 11:50:02;;;;;;;;;;;;;;;24.42;100.00;99326.47;4988690;28;19922;-74
2023/06/09 11:52:28;;;;;;;;;;;;;;;24.01;100.00;99328.25;4988867;28;19967;-75
2023/06/09 11:54:53;;;;;;;;;;;;;;;23.97;100.00;99323.56;4989852;28;19922;-76
2023/06/09 11:57:19;;;;;;;;;;;;;;;24.14;100.00;99321.81;4984323;28;19922;-77
2023/06/09 11:59:45;;;;;;;;;;;;;;;24.24;100.00;99323.91;4985890;28;20016;-77
2023/06/09 12:02:12;;;;;;;;;;;;;;;24.25;100.00;99325.56;4984555;28;19933;-89
2023/06/09 12:04:41;;;;;;;;;;;;;;;24.19;100.00;99321.13;4986941;28;19914;-75
2023/06/09 12:07:12;;;;;;;;;;;;;;;24.20;100.00;99323.59;4993758;28;19922;-78
2023/06/09 12:09:46;;;;;;;;;;;;;;;24.16;100.00;99316.97;4991391;28;19933;-76
2023/06/09 12:12:12;;;;;;;;;;;;;;;24.17;100.00;99317.78;4994885;28;19956;-75
2023/06/09 12:14:38;;;;;;;;;;;;;;;23.94;100.00;99322.16;4977541;28;20329;-80
2023/06/09 12:17:05;;;;;;;;;;;;;;;24.04;100.00;99319.69;4987306;28;19952;-76
2023/06/09 12:19:31;;;;;;;;;;;;;;;24.06;100.00;99306.81;4992344;28;20298;-76
2023/06/09 12:21:56;;;;;;;;;;;;;;;24.11;100.00;99307.97;4989640;28;19929;-73
2023/06/09 12:24:22;;;;;;;;;;;;;;;24.25;100.00;99301.31;4991767;28;19949;-74
2023/06/09 12:26:48;;;;;;;;;;;;;;;24.36;100.00;99297.75;4989642;28;19918;-73
2023/06/09 12:29:14;;;;;;;;;;;;;;;24.39;100.00;99290.00;4993908;28;19922;-73
2023/06/09 12:31:46;;;;;;;;;;;;;;;24.24;100.00;99288.88;4997371;28;19925;-73
2023/06/09 12:34:25;;;;;;;;;;;;;;;24.11;100.00;99286.41;4988470;28;19969;-73
2023/06/09 12:36:55;;;;;;;;;;;;;;;24.27;100.00;99288.41;4987659;28;20250;-76